Flight Track Log - Related Links

Times and Time Zones

All times are in EDT time to prevent confusion due to time zone crossing. See the SKW5517 flight status page for this flight to view local times or setup timezone preferences in your user account.

Time Position Orientation Groundspeed Altitude Reporting Facility
EDT Latitude Longitude Course Direction KTS MPH feet Rate Location/Type
Sat 09:27:00 PM 39.6302 -105.2162 241° Southwest  Level Estimated
Sat 09:28:00 PM 39.5719 -105.3514 241° Southwest  Level Estimated
Sat 09:29:00 PM 39.5135 -105.4864 241° Southwest  Level Estimated
Sat 09:30:00 PM 39.4549 -105.6211 241° Southwest  Level Estimated
Sat 09:31:00 PM 39.3962 -105.7556 241° Southwest  Level Estimated
Sat 09:32:00 PM 39.3373 -105.8899 240° Southwest  Level Estimated
Sat 09:33:00 PM 39.2783 -106.0239 240° Southwest  Level Estimated
Sat 09:34:00 PM 39.2191 -106.1578 240° Southwest  Level Estimated
Sat 09:35:00 PM 39.1597 -106.2914 240° Southwest  Level Estimated
Sat 09:36:00 PM 39.1002 -106.4248 240° Southwest  Level Estimated
Sat 09:37:00 PM 39.0406 -106.5579 240° Southwest  Level Estimated
Sat 09:38:00 PM 38.9808 -106.6908 240° Southwest  Level Estimated
Sat 09:39:00 PM 38.9208 -106.8235 240° Southwest  Level Estimated
Sat 09:40:00 PM 38.8607 -106.9560 240° Southwest  Level Estimated
Sat 09:41:00 PM 38.8005 -107.0883 240° Southwest  Level Estimated
Sat 09:42:00 PM 38.7401 -107.2203 240° Southwest  Level Estimated
Sat 09:43:00 PM 38.6795 -107.3521 240° Southwest  Level Estimated
Sat 09:44:00 PM 38.6188 -107.4837 239° Southwest  Level Estimated
Sat 09:45:00 PM 38.5580 -107.6151 239° Southwest  Level Estimated
Sat 09:46:00 PM 38.4970 -107.7462 239° Southwest  Level Estimated
Sat 09:47:00 PM 38.4358 -107.8771 239° Southwest  Level Estimated
Sat 09:48:00 PM 38.3746 -108.0078 239° Southwest  Level Estimated
Sat 09:49:00 PM 38.3131 -108.1383 239° Southwest  Level Estimated
Sat 09:50:00 PM 38.2516 -108.2685 239° Southwest  Level Estimated
Sat 09:51:00 PM 38.1898 -108.3986 239° Southwest  Level Estimated
Sat 09:52:00 PM 38.1280 -108.5284 239° Southwest  Level Estimated
Sat 09:53:00 PM 38.0660 -108.6580 239° Southwest  Level Estimated
Sat 09:54:00 PM 38.0038 -108.7874 239° Southwest  Level Estimated
Sat 09:55:00 PM 37.9416 -108.9165 239° Southwest  Level Estimated
Sat 09:56:00 PM 37.8791 -109.0454 239° Southwest  Level Estimated
Sat 09:57:00 PM 37.8166 -109.1741 238° Southwest  Level Estimated
Sat 09:58:00 PM 37.7538 -109.3027 238° Southwest  Level Estimated
Sat 09:59:00 PM 37.6910 -109.4309 238° Southwest  Level Estimated
Sat 10:00:00 PM 37.6280 -109.5590 238° Southwest  Level Estimated
Sat 10:01:00 PM 37.5649 -109.6868 238° Southwest  Level Estimated
Sat 10:02:00 PM 37.5017 -109.8145 238° Southwest  Level Estimated
Sat 10:03:00 PM 37.4383 -109.9419 238° Southwest  Level Estimated
Sat 10:04:00 PM 37.3747 -110.0691 238° Southwest  Level Estimated
Sat 10:05:00 PM 37.3111 -110.1961 238° Southwest  Level Estimated
Sat 10:06:00 PM 37.2472 -110.3228 238° Southwest  Level Estimated
Sat 10:07:00 PM 37.1833 -110.4494 238° Southwest  Level Estimated
Sat 10:08:00 PM 37.1192 -110.5757 238° Southwest  Level Estimated
Sat 10:09:00 PM 37.0550 -110.7018 237° Southwest  Level Estimated
Sat 10:10:00 PM 36.9907 -110.8278 237° Southwest  Level Estimated
Sat 10:11:00 PM 36.9262 -110.9535 237° Southwest  Level Estimated
Sat 10:12:00 PM 36.8616 -111.0789 237° Southwest  Level Estimated
Sat 10:13:00 PM 36.7969 -111.2042 237° Southwest  Level Estimated
Sat 10:14:00 PM 36.7320 -111.3293 237° Southwest  Level Estimated
Sat 10:15:00 PM 36.6670 -111.4541 237° Southwest  Level Estimated
Sat 10:16:00 PM 36.6019 -111.5788 237° Southwest  Level Estimated
Sat 10:17:00 PM 36.5366 -111.7032 237° Southwest  Level Estimated
Sat 10:18:00 PM 36.4712 -111.8274 237° Southwest  Level Estimated
Sat 10:19:00 PM 36.4057 -111.9514 237° Southwest  Level Estimated
Sat 10:20:00 PM 36.3401 -112.0752 237° Southwest  Level Estimated
Sat 10:21:00 PM 36.2743 -112.1988 237° Southwest  Level Estimated
Sat 10:22:00 PM 36.2084 -112.3222 237° Southwest  Level Estimated
Sat 10:23:00 PM 36.1424 -112.4454 236° Southwest  Level Estimated
Sat 10:24:00 PM 36.0762 -112.5683 236° Southwest  Level Estimated
Sat 10:25:00 PM 36.0099 -112.6911 236° Southwest  Level Estimated
Sat 10:26:00 PM 35.9435 -112.8136 236° Southwest  Level Estimated
Sat 10:27:00 PM 35.8770 -112.9360 236° Southwest  Level Estimated
Sat 10:28:00 PM 35.8103 -113.0581 236° Southwest  Level Estimated
Sat 10:29:00 PM 35.7436 -113.1801 236° Southwest  Level Estimated
Sat 10:30:00 PM 35.6767 -113.3018 236° Southwest  Level Estimated
Sat 10:31:00 PM 35.6097 -113.4233 236° Southwest  Level Estimated
Sat 10:32:00 PM 35.5425 -113.5446 236° Southwest  Level Estimated
Sat 10:33:00 PM 35.4753 -113.6658 236° Southwest  Level Estimated
Sat 10:34:00 PM 35.4079 -113.7867 236° Southwest  Level Estimated
Sat 10:35:00 PM 35.3404 -113.9074 236° Southwest  Level Estimated
Sat 10:36:00 PM 35.2728 -114.0279 236° Southwest  Level Estimated
Sat 10:37:00 PM 35.2050 -114.1482 235° Southwest  Level Estimated
Sat 10:38:00 PM 35.1372 -114.2683 235° Southwest  Level Estimated
Sat 10:39:00 PM 35.0692 -114.3882 235° Southwest  Level Estimated
Sat 10:40:00 PM 35.0011 -114.5079 235° Southwest  Level Estimated
Sat 10:41:00 PM 34.9329 -114.6275 235° Southwest  Level Estimated
Sat 10:42:00 PM 34.8645 -114.7468 235° Southwest  Level Estimated
Sat 10:43:00 PM 34.7961 -114.8659 235° Southwest  Level Estimated
Sat 10:44:00 PM 34.7275 -114.9848 235° Southwest  Level Estimated
Sat 10:45:00 PM 34.6589 -115.1035 235° Southwest  Level Estimated
Sat 10:46:00 PM 34.5901 -115.2221 235° Southwest  Level Estimated
Sat 10:47:00 PM 34.5211 -115.3404 235° Southwest  Level Estimated
Sat 10:48:00 PM 34.4521 -115.4585 235° Southwest  Level Estimated
Sat 10:49:00 PM 34.3830 -115.5764 235° Southwest  Level Estimated
Sat 10:50:00 PM 34.3137 -115.6942 235° Southwest  Level Estimated
Sat 10:51:00 PM 34.2444 -115.8117 235° Southwest  Level Estimated
Sat 10:52:00 PM 34.1749 -115.9291 234° Southwest  Level Estimated
Sat 10:53:00 PM 34.1053 -116.0462 234° Southwest  Level Estimated
Sat 10:54:00 PM 34.0356 -116.1632 234° Southwest  Level Estimated
Sat 10:55:00 PM 33.9658 -116.2800 234° Southwest  Level Estimated
Sat 10:56:00 PM 33.8959 -116.3966 234° Southwest  Level Estimated
Sat 10:57:00 PM 33.8297 -116.5067 234° Southwest  Level Estimated
Sat 10:58:00 PM 33.8297 -116.5067 228° Southwest  Level Estimated
Sat 10:59:00 PM 33.8297 -116.5067 228° Southwest  Level Estimated
Sat 11:00:00 PM 33.8297 -116.5067 228° Southwest  Level Estimated
Sat 11:01:00 PM 33.8297 -116.5067 228° Southwest  Level Estimated
Sat 11:02:00 PM 33.8297 -116.5067 228° Southwest  Level Estimated
Sat 11:03:00 PM 33.8297 -116.5067 228° Southwest  Level Estimated
Sat 11:04:00 PM 33.8297 -116.5067 228° Southwest  Level Estimated
Sat 11:05:00 PM 33.8297 -116.5067 228° Southwest  Level Estimated

Login

Don't have an account? Register now (free) for customized features, flight alerts, and more!